Plank, Pennsylvania
Current Conditions -  °F | °C
As of 8:15 AM on Thursday 23 Oct 2014 (Local Time) from KN38 Reporting Station
Overcast Overcast  
Wind Chill: 34°   Ceiling: 1000
Heat Index: 43°   Visibility: 9mi
Dew Point: 41°   Wind: 20mph
Humidity: 93%   Direction: 350°N
Pressure: 29.99"   Gusts: 30mph
Location:  41.533°N, 77.3132°W
Report Text: KN38 231215Z AUTO 35017G26KT 9SM OVC010 06/05 A2999 RMK AO2
Loading
Personal Weather Stations






























Interactive Weather Map
Tropical Storm Tracking
New forecast layout! Learn more

10-Day Weather Forecast

Advertisements
Track Severe Weather on mobile